createdAt,value
2019-01-14T00:00:29.935Z,23.7
2019-01-14T00:01:32.386Z,23.7
2019-01-14T00:02:34.546Z,23.7
2019-01-14T00:03:36.417Z,23.7
2019-01-14T00:04:38.837Z,23.7
2019-01-14T00:05:41.266Z,23.7
2019-01-14T00:06:43.720Z,23.7
2019-01-14T00:07:46.150Z,23.7
2019-01-14T00:08:48.577Z,23.7
2019-01-14T00:09:51.007Z,23.7
2019-01-14T00:10:53.231Z,23.7
2019-01-14T00:11:55.670Z,23.7
2019-01-14T00:12:57.824Z,23.7
2019-01-14T00:14:00.267Z,23.6
2019-01-14T00:15:02.696Z,23.6
2019-01-14T00:16:05.120Z,23.6
2019-01-14T00:17:07.544Z,23.6
2019-01-14T00:18:09.713Z,23.6
2019-01-14T00:19:11.865Z,23.6
2019-01-14T00:20:14.292Z,23.6
2019-01-14T00:21:16.715Z,23.6
2019-01-14T00:22:18.882Z,23.6
2019-01-14T00:23:21.071Z,23.6
2019-01-14T00:24:23.483Z,23.6
2019-01-14T00:25:25.648Z,23.6
2019-01-14T00:26:28.065Z,23.7
2019-01-14T00:27:30.206Z,23.6
2019-01-14T00:28:32.625Z,23.6
2019-01-14T00:29:34.769Z,23.6
2019-01-14T00:30:36.925Z,23.7
2019-01-14T00:31:39.340Z,23.7
2019-01-14T00:32:41.772Z,23.7
2019-01-14T00:33:43.933Z,23.7
2019-01-14T00:34:46.377Z,23.7
2019-01-14T00:35:48.509Z,23.7
2019-01-14T00:36:50.654Z,23.7
2019-01-14T00:37:53.081Z,23.7
2019-01-14T00:38:55.511Z,23.7
2019-01-14T00:39:57.956Z,23.7
2019-01-14T00:41:00.125Z,23.7
2019-01-14T00:42:02.632Z,23.7
2019-01-14T00:43:05.057Z,23.7
2019-01-14T00:44:07.210Z,23.7
2019-01-14T00:45:09.367Z,23.7
2019-01-14T00:46:11.786Z,23.7
2019-01-14T00:47:14.214Z,23.7
2019-01-14T00:48:16.373Z,23.7
2019-01-14T00:49:18.797Z,23.7
2019-01-14T00:50:20.955Z,23.7
2019-01-14T00:51:23.385Z,23.7
2019-01-14T00:52:25.809Z,23.7
2019-01-14T00:53:27.688Z,23.7
2019-01-14T00:54:29.574Z,23.7
2019-01-14T00:55:31.467Z,23.7
2019-01-14T00:56:33.636Z,23.7
2019-01-14T00:57:36.063Z,23.7
2019-01-14T00:58:37.942Z,23.8
2019-01-14T00:59:40.085Z,23.8
2019-01-14T01:00:42.515Z,23.8
2019-01-14T01:01:44.944Z,23.8
2019-01-14T01:02:47.393Z,23.8
2019-01-14T01:03:49.828Z,23.8
2019-01-14T01:04:52.246Z,23.8
2019-01-14T01:05:54.672Z,23.8
2019-01-14T01:06:57.094Z,23.8
2019-01-14T01:07:58.976Z,23.8
2019-01-14T01:09:01.131Z,23.8
2019-01-14T01:10:03.563Z,23.9
2019-01-14T01:11:05.423Z,23.9
2019-01-14T01:12:07.868Z,23.9
2019-01-14T01:13:10.042Z,23.9
2019-01-14T01:14:12.471Z,23.9
2019-01-14T01:15:14.900Z,24
2019-01-14T01:16:17.324Z,24
2019-01-14T01:17:19.474Z,24
2019-01-14T01:18:21.904Z,24
2019-01-14T01:19:24.038Z,24
2019-01-14T01:20:26.464Z,24
2019-01-14T01:21:28.625Z,24
2019-01-14T01:22:30.758Z,24
2019-01-14T01:23:32.894Z,24
2019-01-14T01:24:35.326Z,24
2019-01-14T01:25:37.752Z,24
2019-01-14T01:26:40.177Z,24
2019-01-14T01:27:42.601Z,24.1
2019-01-14T01:28:45.024Z,24.1
2019-01-14T01:29:47.447Z,24.1
2019-01-14T01:30:49.615Z,24.1
2019-01-14T01:31:51.755Z,24.1
2019-01-14T01:32:53.644Z,24.1
2019-01-14T01:33:55.776Z,24.1
2019-01-14T01:34:57.931Z,24.1
2019-01-14T01:36:00.353Z,24.1
2019-01-14T01:37:02.793Z,24.2
2019-01-14T01:38:04.971Z,24.2
2019-01-14T01:39:07.405Z,24.2
2019-01-14T01:40:09.879Z,24.2
2019-01-14T01:41:12.296Z,24.2
2019-01-14T01:42:14.452Z,24.2
2019-01-14T01:43:16.615Z,24.2
2019-01-14T01:44:18.770Z,24.3
2019-01-14T01:45:20.925Z,24.3
2019-01-14T01:46:23.090Z,24.3
2019-01-14T01:47:25.248Z,24.3
2019-01-14T01:48:27.671Z,24.3
2019-01-14T01:49:30.098Z,24.3
2019-01-14T01:50:32.524Z,24.3
2019-01-14T01:51:34.678Z,24.3
2019-01-14T01:52:37.111Z,24.3
2019-01-14T01:53:39.272Z,24.3
2019-01-14T01:54:41.724Z,24.3
2019-01-14T01:55:44.154Z,24.3
2019-01-14T01:56:46.577Z,24.4
2019-01-14T01:57:48.737Z,24.4
2019-01-14T01:58:50.594Z,24.4
2019-01-14T01:59:53.042Z,24.4
2019-01-14T02:00:55.464Z,24.4
2019-01-14T02:01:57.885Z,24.4
2019-01-14T02:03:00.304Z,24.4
2019-01-14T02:04:02.163Z,24.4
2019-01-14T02:05:04.307Z,24.4
2019-01-14T02:06:06.734Z,24.4
2019-01-14T02:07:09.174Z,24.4
2019-01-14T02:08:11.314Z,24.4
2019-01-14T02:09:13.743Z,24.4
2019-01-14T02:10:15.884Z,24.4
2019-01-14T02:11:17.759Z,24.4
2019-01-14T02:12:19.914Z,24.4
2019-01-14T02:13:22.068Z,24.4
2019-01-14T02:14:24.214Z,24.4
2019-01-14T02:15:26.644Z,24.4
2019-01-14T02:16:28.798Z,24.4
2019-01-14T02:17:31.230Z,24.4
2019-01-14T02:18:33.672Z,24.4
2019-01-14T02:19:35.555Z,24.4
2019-01-14T02:20:37.414Z,24.4
2019-01-14T02:21:39.574Z,24.4
2019-01-14T02:22:41.714Z,24.4
2019-01-14T02:23:43.606Z,24.4
2019-01-14T02:24:45.739Z,24.4
2019-01-14T02:25:48.177Z,24.4
2019-01-14T02:26:50.304Z,24.4
2019-01-14T02:27:52.736Z,24.4
2019-01-14T02:28:55.172Z,24.4
2019-01-14T02:29:57.324Z,24.4
2019-01-14T02:30:59.754Z,24.4
2019-01-14T02:32:02.195Z,24.4
2019-01-14T02:33:04.629Z,24.5
2019-01-14T02:34:06.780Z,24.5
2019-01-14T02:35:09.206Z,24.4
2019-01-14T02:36:11.365Z,24.5
2019-01-14T02:37:13.517Z,24.5
2019-01-14T02:38:15.947Z,24.5
2019-01-14T02:39:18.103Z,24.5
2019-01-14T02:40:20.322Z,24.5
2019-01-14T02:41:22.754Z,24.5
2019-01-14T02:42:25.174Z,24.5
2019-01-14T02:43:27.600Z,24.5
2019-01-14T02:44:30.030Z,24.5
2019-01-14T02:45:32.468Z,24.4
2019-01-14T02:46:34.903Z,24.5
2019-01-14T02:47:37.082Z,24.4
2019-01-14T02:48:39.504Z,24.4
2019-01-14T02:49:41.934Z,24.4
2019-01-14T02:50:44.354Z,24.4
2019-01-14T02:51:46.825Z,24.4
2019-01-14T02:52:49.250Z,24.4
2019-01-14T02:53:51.682Z,24.4
2019-01-14T02:54:54.098Z,24.4
2019-01-14T02:55:56.264Z,24.4
2019-01-14T02:56:58.135Z,24.4
2019-01-14T02:58:00.554Z,24.4
2019-01-14T02:59:02.987Z,24.4
2019-01-14T03:00:05.164Z,24.4
2019-01-14T03:01:07.320Z,24.4
2019-01-14T03:02:09.738Z,24.4
2019-01-14T03:03:11.886Z,24.4
2019-01-14T03:04:14.015Z,24.4
2019-01-14T03:05:16.158Z,24.4
2019-01-14T03:06:18.584Z,24.4
2019-01-14T03:07:20.717Z,24.4
2019-01-14T03:08:22.872Z,24.4
2019-01-14T03:09:25.314Z,24.4
2019-01-14T03:10:27.474Z,24.4
2019-01-14T03:11:29.638Z,24.4
2019-01-14T03:12:32.072Z,24.4
2019-01-14T03:13:34.216Z,24.4
2019-01-14T03:14:36.663Z,24.4
2019-01-14T03:15:39.082Z,24.4
2019-01-14T03:16:41.504Z,24.4
2019-01-14T03:17:43.936Z,24.4
2019-01-14T03:18:46.366Z,24.4
2019-01-14T03:19:48.783Z,24.5
2019-01-14T03:20:51.220Z,24.5
2019-01-14T03:21:53.724Z,24.5
2019-01-14T03:22:56.146Z,24.5
2019-01-14T03:23:58.571Z,24.5
2019-01-14T03:25:01.118Z,24.5
2019-01-14T03:26:03.608Z,24.5
2019-01-14T03:27:06.043Z,24.5
2019-01-14T03:28:08.160Z,24.5
2019-01-14T03:29:10.298Z,24.5
2019-01-14T03:30:12.730Z,24.5
2019-01-14T03:31:14.397Z,24.4
2019-01-14T03:32:16.563Z,24.4
2019-01-14T03:33:18.726Z,24.4
2019-01-14T03:34:20.873Z,24.4
2019-01-14T03:35:23.032Z,24.4
2019-01-14T03:36:25.473Z,24.4
2019-01-14T03:37:27.606Z,24.4
2019-01-14T03:38:29.757Z,24.4
2019-01-14T03:39:32.186Z,24.4
2019-01-14T03:40:34.611Z,24.5
2019-01-14T03:41:36.772Z,24.5
2019-01-14T03:42:39.227Z,24.5
2019-01-14T03:43:41.645Z,24.5
2019-01-14T03:44:44.084Z,24.5
2019-01-14T03:45:46.224Z,24.5
2019-01-14T03:46:48.652Z,24.5
2019-01-14T03:47:50.825Z,24.5
2019-01-14T03:48:52.968Z,24.5
2019-01-14T03:49:55.391Z,24.5
2019-01-14T03:50:56.716Z,24.5
2019-01-14T03:51:59.134Z,24.5
2019-01-14T03:53:01.565Z,24.5
2019-01-14T03:54:03.981Z,24.5
2019-01-14T03:55:06.144Z,24.5
2019-01-14T03:56:08.304Z,24.5
2019-01-14T03:57:10.743Z,24.5
2019-01-14T03:58:13.213Z,24.5
2019-01-14T03:59:15.614Z,24.5
2019-01-14T04:00:17.777Z,24.5
2019-01-14T04:01:19.942Z,24.5
2019-01-14T04:02:22.372Z,24.5
2019-01-14T04:03:24.577Z,24.5
2019-01-14T04:04:26.464Z,24.5
2019-01-14T04:05:28.891Z,24.4
2019-01-14T04:06:31.322Z,24.4
2019-01-14T04:07:33.755Z,24.4
2019-01-14T04:08:35.916Z,24.3
2019-01-14T04:09:38.350Z,24.3
2019-01-14T04:10:40.791Z,24.3
2019-01-14T04:11:43.214Z,24.3
2019-01-14T04:12:45.372Z,24.2
2019-01-14T04:13:47.807Z,24.2
2019-01-14T04:14:50.234Z,24.2
2019-01-14T04:15:52.667Z,24.2
2019-01-14T04:16:54.796Z,24.1
2019-01-14T04:17:56.950Z,24.1
2019-01-14T04:18:59.366Z,24.1
2019-01-14T04:20:01.534Z,24.1
2019-01-14T04:21:03.976Z,24.1
2019-01-14T04:22:06.135Z,24.1
2019-01-14T04:23:08.561Z,24
2019-01-14T04:24:10.985Z,24
2019-01-14T04:25:13.135Z,24
2019-01-14T04:26:15.562Z,24
2019-01-14T04:27:17.719Z,24
2019-01-14T04:28:19.880Z,24
2019-01-14T04:29:22.304Z,24
2019-01-14T04:30:24.452Z,24
2019-01-14T04:31:26.942Z,24
2019-01-14T04:32:29.091Z,24
2019-01-14T04:33:31.244Z,24
2019-01-14T04:34:33.675Z,24
2019-01-14T04:35:36.154Z,23.9
2019-01-14T04:36:38.014Z,23.9
2019-01-14T04:37:40.431Z,23.9
2019-01-14T04:38:42.873Z,23.9
2019-01-14T04:39:45.297Z,23.9
2019-01-14T04:40:47.699Z,23.9
2019-01-14T04:41:50.117Z,23.9
2019-01-14T04:42:52.279Z,23.9
2019-01-14T04:43:54.694Z,23.9
2019-01-14T04:44:56.841Z,23.9
2019-01-14T04:45:58.968Z,23.9
2019-01-14T04:47:01.111Z,23.9
2019-01-14T04:48:03.553Z,23.9
2019-01-14T04:49:05.716Z,23.9
2019-01-14T04:50:07.845Z,23.9
2019-01-14T04:51:10.265Z,23.8
2019-01-14T04:52:12.695Z,23.9
2019-01-14T04:53:14.841Z,23.8
2019-01-14T04:54:17.283Z,23.8
2019-01-14T04:55:19.446Z,23.8
2019-01-14T04:56:21.595Z,23.8
2019-01-14T04:57:24.014Z,23.8
2019-01-14T04:58:26.172Z,23.8
2019-01-14T04:59:28.334Z,23.8
2019-01-14T05:00:30.473Z,23.8
2019-01-14T05:01:32.621Z,23.8
2019-01-14T05:02:35.044Z,23.8
2019-01-14T05:03:37.181Z,23.8
2019-01-14T05:04:39.607Z,23.8
2019-01-14T05:05:42.037Z,23.8
2019-01-14T05:06:44.207Z,23.8
2019-01-14T05:07:46.634Z,23.8
2019-01-14T05:08:49.063Z,23.8
2019-01-14T05:09:51.485Z,23.8
2019-01-14T05:10:53.636Z,23.8
2019-01-14T05:11:56.053Z,23.8
2019-01-14T05:12:58.194Z,23.8
2019-01-14T05:14:00.065Z,23.8
2019-01-14T05:15:02.496Z,23.8
2019-01-14T05:16:04.624Z,23.8
2019-01-14T05:17:07.065Z,23.8
2019-01-14T05:18:09.210Z,23.8
2019-01-14T05:19:11.642Z,23.8
2019-01-14T05:20:14.083Z,23.8
2019-01-14T05:21:16.267Z,23.8
2019-01-14T05:22:18.130Z,23.8
2019-01-14T05:23:20.555Z,23.8
2019-01-14T05:24:22.716Z,23.7
2019-01-14T05:25:25.139Z,23.8
2019-01-14T05:26:26.996Z,23.7
2019-01-14T05:27:29.423Z,23.7
2019-01-14T05:28:31.555Z,23.7
2019-01-14T05:29:33.435Z,23.7
2019-01-14T05:30:35.888Z,23.7
2019-01-14T05:31:38.310Z,23.7
2019-01-14T05:32:40.458Z,23.7
2019-01-14T05:33:42.879Z,23.7
2019-01-14T05:34:45.031Z,23.7
2019-01-14T05:35:47.470Z,23.7
2019-01-14T05:36:49.906Z,23.7
2019-01-14T05:37:52.321Z,23.7
2019-01-14T05:38:54.748Z,23.7
2019-01-14T05:39:56.618Z,23.7
2019-01-14T05:40:58.772Z,23.7
2019-01-14T05:42:01.204Z,23.7
2019-01-14T05:43:03.624Z,23.7
2019-01-14T05:44:05.786Z,23.7
2019-01-14T05:45:07.920Z,23.7
2019-01-14T05:46:10.055Z,23.7
2019-01-14T05:47:12.227Z,23.7
2019-01-14T05:48:14.391Z,23.7
2019-01-14T05:49:16.811Z,23.7
2019-01-14T05:50:18.677Z,23.6
2019-01-14T05:51:21.104Z,23.7
2019-01-14T05:52:23.588Z,23.6
2019-01-14T05:53:25.755Z,23.6
2019-01-14T05:54:28.182Z,23.6
2019-01-14T05:55:30.381Z,23.6
2019-01-14T05:56:32.845Z,23.6
2019-01-14T05:57:35.255Z,23.6
2019-01-14T05:58:37.680Z,23.6
2019-01-14T05:59:39.273Z,23.6
2019-01-14T06:00:41.418Z,23.6
2019-01-14T06:01:43.575Z,23.6
2019-01-14T06:02:46.012Z,23.6
2019-01-14T06:03:48.185Z,23.6
2019-01-14T06:04:50.615Z,23.6
2019-01-14T06:05:52.778Z,23.6
2019-01-14T06:06:55.211Z,23.6
2019-01-14T06:07:57.378Z,23.6
2019-01-14T06:08:59.831Z,23.6
2019-01-14T06:10:02.316Z,23.6
2019-01-14T06:11:04.211Z,23.6
2019-01-14T06:12:06.644Z,23.6
2019-01-14T06:13:09.083Z,23.6
2019-01-14T06:14:11.256Z,23.6
2019-01-14T06:15:13.689Z,23.6
2019-01-14T06:16:15.853Z,23.6
2019-01-14T06:17:19.645Z,23.6
2019-01-14T06:18:21.784Z,23.6
2019-01-14T06:19:23.946Z,23.6
2019-01-14T06:20:25.886Z,23.6
2019-01-14T06:21:28.321Z,23.6
2019-01-14T06:22:30.783Z,23.6
2019-01-14T06:23:33.203Z,23.6
2019-01-14T06:24:35.635Z,23.6
2019-01-14T06:25:38.063Z,23.6
2019-01-14T06:26:40.514Z,23.6
2019-01-14T06:27:42.965Z,23.6
2019-01-14T06:28:44.866Z,23.6
2019-01-14T06:29:47.290Z,23.6
2019-01-14T06:30:49.762Z,23.6
2019-01-14T06:31:52.219Z,23.6
2019-01-14T06:32:54.354Z,23.6
2019-01-14T06:33:56.804Z,23.6
2019-01-14T06:34:59.240Z,23.6
2019-01-14T06:36:01.679Z,23.6
2019-01-14T06:37:03.879Z,23.6
2019-01-14T06:38:06.302Z,23.6
2019-01-14T06:39:08.747Z,23.6
2019-01-14T06:40:10.906Z,23.6
2019-01-14T06:41:13.358Z,23.6
2019-01-14T06:42:15.807Z,23.6
2019-01-14T06:43:17.965Z,23.6
2019-01-14T06:44:20.390Z,23.6
2019-01-14T06:45:22.541Z,23.6
2019-01-14T06:46:25.012Z,23.6
2019-01-14T06:47:27.445Z,23.6
2019-01-14T06:48:31.008Z,23.6
2019-01-14T06:49:33.501Z,23.6
2019-01-14T06:50:35.645Z,23.6
2019-01-14T06:51:38.096Z,23.6
2019-01-14T06:52:40.248Z,23.6
2019-01-14T06:53:42.393Z,23.6
2019-01-14T06:54:44.606Z,23.6
2019-01-14T06:55:47.073Z,23.6
2019-01-14T06:56:49.545Z,23.6
2019-01-14T06:57:51.761Z,23.6
2019-01-14T06:58:54.192Z,23.6
2019-01-14T06:59:56.635Z,23.6
2019-01-14T07:00:59.057Z,23.6
2019-01-14T07:02:01.484Z,23.6
2019-01-14T07:03:03.643Z,23.6
2019-01-14T07:04:06.075Z,23.6
2019-01-14T07:05:07.956Z,23.6
2019-01-14T07:06:09.836Z,23.6
2019-01-14T07:07:12.276Z,23.6
2019-01-14T07:08:14.702Z,23.6
2019-01-14T07:09:16.835Z,23.5
2019-01-14T07:10:19.261Z,23.5
2019-01-14T07:11:21.710Z,23.5
2019-01-14T07:12:23.585Z,23.5
2019-01-14T07:13:25.733Z,23.5
2019-01-14T07:14:28.184Z,23.5
2019-01-14T07:15:30.335Z,23.5
2019-01-14T07:16:32.507Z,23.5
2019-01-14T07:17:34.955Z,23.5
2019-01-14T07:18:37.096Z,23.5
2019-01-14T07:19:39.242Z,23.5
2019-01-14T07:20:41.681Z,23.5
2019-01-14T07:21:44.125Z,23.5
2019-01-14T07:22:46.555Z,23.5
2019-01-14T07:23:48.995Z,23.5
2019-01-14T07:24:51.425Z,23.5
2019-01-14T07:25:53.575Z,23.5
2019-01-14T07:26:56.006Z,23.5
2019-01-14T07:27:58.444Z,23.5
2019-01-14T07:29:00.622Z,23.5
2019-01-14T07:30:02.753Z,23.5
2019-01-14T07:31:04.910Z,23.5
2019-01-14T07:32:07.342Z,23.5
2019-01-14T07:33:09.239Z,23.5
2019-01-14T07:34:11.677Z,23.5
2019-01-14T07:35:14.110Z,23.5
2019-01-14T07:36:16.279Z,23.5
2019-01-14T07:37:18.157Z,23.5
2019-01-14T07:38:20.600Z,23.5
2019-01-14T07:39:23.044Z,23.5
2019-01-14T07:40:25.402Z,23.5
2019-01-14T07:41:27.531Z,23.5
2019-01-14T07:42:29.674Z,23.5
2019-01-14T07:43:31.825Z,23.5
2019-01-14T07:44:34.305Z,23.5
2019-01-14T07:45:36.183Z,23.5
2019-01-14T07:46:38.615Z,23.5
2019-01-14T07:47:41.043Z,23.5
2019-01-14T07:48:43.211Z,23.5
2019-01-14T07:49:45.387Z,23.5
2019-01-14T07:50:47.828Z,23.5
2019-01-14T07:51:49.976Z,23.5
2019-01-14T07:52:52.132Z,23.5
2019-01-14T07:53:54.564Z,23.5
2019-01-14T07:54:56.720Z,23.5
2019-01-14T07:55:59.169Z,23.5
2019-01-14T07:57:01.581Z,23.5
2019-01-14T07:58:03.733Z,23.5
2019-01-14T07:59:06.162Z,23.5
2019-01-14T08:00:08.608Z,23.5
2019-01-14T08:01:10.758Z,23.5
2019-01-14T08:02:13.183Z,23.5
2019-01-14T08:03:15.603Z,23.5
2019-01-14T08:04:17.230Z,23.5
2019-01-14T08:05:19.394Z,23.5
2019-01-14T08:06:21.815Z,23.5
2019-01-14T08:07:23.682Z,23.5
2019-01-14T08:08:25.844Z,23.5
2019-01-14T08:09:28.273Z,23.5
2019-01-14T08:10:30.139Z,23.5
2019-01-14T08:11:32.567Z,23.5
2019-01-14T08:12:34.730Z,23.5
2019-01-14T08:13:36.322Z,23.5
2019-01-14T08:14:38.764Z,23.5
2019-01-14T08:15:45.684Z,23.5
2019-01-14T08:16:48.133Z,23.5
2019-01-14T08:17:50.563Z,23.5
2019-01-14T08:18:52.748Z,23.5
2019-01-14T08:19:54.629Z,23.5
2019-01-14T08:20:56.514Z,23.5
2019-01-14T08:21:58.950Z,23.5
2019-01-14T08:23:01.114Z,23.5
2019-01-14T08:24:03.549Z,23.5
2019-01-14T08:25:05.974Z,23.5
2019-01-14T08:26:08.408Z,23.5
2019-01-14T08:27:10.590Z,23.5
2019-01-14T08:28:13.013Z,23.5
2019-01-14T08:29:15.434Z,23.5
2019-01-14T08:30:17.611Z,23.5
2019-01-14T08:31:19.469Z,23.5
2019-01-14T08:32:21.627Z,23.5
2019-01-14T08:33:24.054Z,23.5
2019-01-14T08:34:25.947Z,23.5
2019-01-14T08:35:28.090Z,23.5
2019-01-14T08:36:30.254Z,23.4
2019-01-14T08:37:32.141Z,23.4
2019-01-14T08:38:34.306Z,23.5
2019-01-14T08:39:36.468Z,23.5
2019-01-14T08:40:38.336Z,23.5
2019-01-14T08:41:40.758Z,23.5
2019-01-14T08:42:43.179Z,23.4
2019-01-14T08:43:45.323Z,23.4
2019-01-14T08:44:47.490Z,23.4
2019-01-14T08:45:49.902Z,23.4
2019-01-14T08:46:52.334Z,23.4
2019-01-14T08:47:54.218Z,23.5
2019-01-14T08:48:56.357Z,23.5
2019-01-14T08:49:58.508Z,23.4
2019-01-14T08:51:00.633Z,23.5
2019-01-14T08:52:03.108Z,23.5
2019-01-14T08:53:05.537Z,23.5
2019-01-14T08:54:07.944Z,23.5
2019-01-14T08:55:10.376Z,23.4
2019-01-14T08:56:12.821Z,23.5
2019-01-14T08:57:15.262Z,23.5
2019-01-14T08:58:17.694Z,23.5
2019-01-14T08:59:20.124Z,23.5
2019-01-14T09:00:22.554Z,23.5
2019-01-14T09:01:24.719Z,23.5
2019-01-14T09:02:26.875Z,23.5
2019-01-14T09:03:29.305Z,23.5
2019-01-14T09:04:33.322Z,23.5
2019-01-14T09:05:35.182Z,23.5
2019-01-14T09:06:37.612Z,23.5
2019-01-14T09:07:40.052Z,23.5
2019-01-14T09:08:42.196Z,23.5
2019-01-14T09:09:44.338Z,23.5
2019-01-14T09:10:46.763Z,23.5
2019-01-14T09:11:48.934Z,23.5
2019-01-14T09:12:50.801Z,23.5
2019-01-14T09:13:52.964Z,23.4
2019-01-14T09:14:55.390Z,23.4
2019-01-14T09:15:57.561Z,23.5
2019-01-14T09:16:59.994Z,23.4
2019-01-14T09:18:04.000Z,23.5
2019-01-14T09:19:06.477Z,23.5
2019-01-14T09:20:08.617Z,23.5
2019-01-14T09:21:10.752Z,23.5
2019-01-14T09:22:14.502Z,23.5
2019-01-14T09:23:16.662Z,23.5
2019-01-14T09:24:18.824Z,23.5
2019-01-14T09:25:21.255Z,23.5
2019-01-14T09:26:23.378Z,23.4
2019-01-14T09:27:25.820Z,23.5
2019-01-14T09:28:27.698Z,23.5
2019-01-14T09:29:30.131Z,23.5
2019-01-14T09:30:32.308Z,23.5
2019-01-14T09:31:34.744Z,23.5
2019-01-14T09:32:36.624Z,23.5
2019-01-14T09:33:38.780Z,23.5
2019-01-14T09:34:40.730Z,23.5
2019-01-14T09:35:42.595Z,23.5
2019-01-14T09:36:44.732Z,23.5
2019-01-14T09:37:47.168Z,23.5
2019-01-14T09:38:49.589Z,23.5
2019-01-14T09:39:51.749Z,23.5
2019-01-14T09:40:54.183Z,23.5
2019-01-14T09:41:56.340Z,23.5
2019-01-14T09:42:58.491Z,23.4
2019-01-14T09:44:00.642Z,23.4
2019-01-14T09:45:02.784Z,23.4
2019-01-14T09:46:04.653Z,23.5
2019-01-14T09:47:07.087Z,23.4
2019-01-14T09:48:09.517Z,23.5
2019-01-14T09:49:11.942Z,23.4
2019-01-14T09:50:14.376Z,23.4
2019-01-14T09:51:16.811Z,23.4
2019-01-14T09:52:18.979Z,23.4
2019-01-14T09:53:21.124Z,23.4
2019-01-14T09:54:23.300Z,23.4
2019-01-14T09:55:25.724Z,23.4
2019-01-14T09:56:28.148Z,23.4
2019-01-14T09:57:30.580Z,23.4
2019-01-14T09:58:32.742Z,23.4
2019-01-14T09:59:34.628Z,23.4
2019-01-14T10:00:36.770Z,23.4
2019-01-14T10:01:39.220Z,23.4
2019-01-14T10:02:41.350Z,23.4
2019-01-14T10:03:43.509Z,23.4
2019-01-14T10:04:45.689Z,23.4
2019-01-14T10:05:48.145Z,23.4
2019-01-14T10:06:50.028Z,23.4
2019-01-14T10:07:52.448Z,23.4
2019-01-14T10:08:54.870Z,23.4
2019-01-14T10:09:57.033Z,23.4
2019-01-14T10:10:59.497Z,23.5
2019-01-14T10:12:01.953Z,23.5
2019-01-14T10:13:04.392Z,23.5
2019-01-14T10:14:06.813Z,23.5
2019-01-14T10:15:08.970Z,23.5
2019-01-14T10:16:10.994Z,23.5
2019-01-14T10:17:12.894Z,23.5
2019-01-14T10:18:15.067Z,23.5
2019-01-14T10:19:17.220Z,23.5
2019-01-14T10:20:19.383Z,23.5
2019-01-14T10:21:21.863Z,23.5
2019-01-14T10:22:24.290Z,23.5
2019-01-14T10:23:26.716Z,23.5
2019-01-14T10:24:28.874Z,23.5
2019-01-14T10:25:31.302Z,23.5
2019-01-14T10:26:33.722Z,23.5
2019-01-14T10:27:35.599Z,23.5
2019-01-14T10:28:38.044Z,23.5
2019-01-14T10:29:40.211Z,23.5
2019-01-14T10:30:42.345Z,23.5
2019-01-14T10:31:44.494Z,23.5
2019-01-14T10:32:46.921Z,23.5
2019-01-14T10:33:49.352Z,23.5
2019-01-14T10:34:51.792Z,23.5
2019-01-14T10:35:53.945Z,23.5
2019-01-14T10:36:56.366Z,23.5
2019-01-14T10:37:58.525Z,23.5
2019-01-14T10:39:00.964Z,23.5
2019-01-14T10:40:03.397Z,23.5
2019-01-14T10:41:05.283Z,23.5
2019-01-14T10:42:07.172Z,23.5
2019-01-14T10:43:09.612Z,23.4
2019-01-14T10:44:12.048Z,23.5
2019-01-14T10:45:14.202Z,23.5
2019-01-14T10:46:16.635Z,23.5
2019-01-14T10:47:18.795Z,23.4
2019-01-14T10:48:20.663Z,23.4
2019-01-14T10:49:22.831Z,23.4
2019-01-14T10:50:25.261Z,23.4
2019-01-14T10:51:27.417Z,23.4
2019-01-14T10:52:29.585Z,23.4
2019-01-14T10:53:32.008Z,23.4
2019-01-14T10:54:34.428Z,23.5
2019-01-14T10:55:36.587Z,23.4
2019-01-14T10:56:43.889Z,23.4
2019-01-14T10:57:44.944Z,23.5
2019-01-14T10:58:47.376Z,23.4
2019-01-14T10:59:49.798Z,23.4
2019-01-14T11:00:52.246Z,23.4
2019-01-14T11:01:53.843Z,23.4
2019-01-14T11:02:55.734Z,23.4
2019-01-14T11:03:57.883Z,23.4
2019-01-14T11:05:00.305Z,23.4
2019-01-14T11:06:02.190Z,23.4
2019-01-14T11:07:04.353Z,23.4
2019-01-14T11:08:06.493Z,23.4
2019-01-14T11:09:08.659Z,23.4
2019-01-14T11:10:10.831Z,23.4
2019-01-14T11:11:12.987Z,23.4
2019-01-14T11:12:15.420Z,23.4
2019-01-14T11:13:17.855Z,23.4
2019-01-14T11:14:20.304Z,23.4
2019-01-14T11:15:22.735Z,23.4
2019-01-14T11:16:24.903Z,23.4
2019-01-14T11:17:27.334Z,23.4
2019-01-14T11:18:29.764Z,23.4
2019-01-14T11:19:32.202Z,23.4
2019-01-14T11:20:34.360Z,23.4
2019-01-14T11:21:36.789Z,23.4
2019-01-14T11:22:38.965Z,23.4
2019-01-14T11:23:41.393Z,23.4
2019-01-14T11:24:43.825Z,23.4
2019-01-14T11:25:46.266Z,23.4
2019-01-14T11:26:48.685Z,23.4
2019-01-14T11:27:50.840Z,23.4
2019-01-14T11:28:53.267Z,23.4
2019-01-14T11:29:55.691Z,23.4
2019-01-14T11:30:58.124Z,23.4
2019-01-14T11:32:00.311Z,23.4
2019-01-14T11:33:02.439Z,23.4
2019-01-14T11:34:04.893Z,23.4
2019-01-14T11:35:07.053Z,23.4
2019-01-14T11:36:09.487Z,23.4
2019-01-14T11:37:11.909Z,23.4
2019-01-14T11:38:14.074Z,23.4
2019-01-14T11:39:16.228Z,23.4
2019-01-14T11:40:18.389Z,23.4
2019-01-14T11:41:20.816Z,23.4
2019-01-14T11:42:23.251Z,23.4
2019-01-14T11:43:25.678Z,23.4
2019-01-14T11:44:28.099Z,23.4
2019-01-14T11:45:30.526Z,23.4
2019-01-14T11:46:32.958Z,23.4
2019-01-14T11:47:35.386Z,23.4
2019-01-14T11:48:37.823Z,23.4
2019-01-14T11:49:40.277Z,23.4
2019-01-14T11:50:42.395Z,23.4
2019-01-14T11:51:44.830Z,23.4
2019-01-14T11:52:46.694Z,23.4
2019-01-14T11:53:48.839Z,23.4
2019-01-14T11:54:51.014Z,23.4
2019-01-14T11:55:53.154Z,23.4
2019-01-14T11:56:55.341Z,23.4
2019-01-14T11:57:57.507Z,23.4
2019-01-14T11:58:59.649Z,23.4
2019-01-14T12:00:02.073Z,23.4
2019-01-14T12:01:04.505Z,23.4
2019-01-14T12:02:06.941Z,23.4
2019-01-14T12:03:09.485Z,23.4
2019-01-14T12:04:11.923Z,23.4
2019-01-14T12:05:14.403Z,23.4
2019-01-14T12:06:16.825Z,23.4
2019-01-14T12:07:18.719Z,23.4
2019-01-14T12:08:22.099Z,23.4
2019-01-14T12:09:24.260Z,23.4
2019-01-14T12:10:26.687Z,23.4
2019-01-14T12:11:29.115Z,23.4
2019-01-14T12:12:31.534Z,23.4
2019-01-14T12:13:33.690Z,23.4
2019-01-14T12:14:36.176Z,23.4
2019-01-14T12:15:38.667Z,23.4
2019-01-14T12:16:40.826Z,23.4
2019-01-14T12:17:42.981Z,23.4
2019-01-14T12:18:45.401Z,23.4
2019-01-14T12:19:47.827Z,23.4
2019-01-14T12:20:50.251Z,23.4
2019-01-14T12:21:52.389Z,23.4
2019-01-14T12:22:54.541Z,23.4
2019-01-14T12:23:56.972Z,23.4
2019-01-14T12:24:59.116Z,23.4
2019-01-14T12:26:01.014Z,23.4
2019-01-14T12:27:03.439Z,23.4
2019-01-14T12:28:05.875Z,23.4
2019-01-14T12:29:08.305Z,23.4
2019-01-14T12:30:10.735Z,23.4
2019-01-14T12:31:13.163Z,23.4
2019-01-14T12:32:14.784Z,23.4
2019-01-14T12:33:17.242Z,23.4
2019-01-14T12:34:19.705Z,23.4
2019-01-14T12:35:21.834Z,23.4
2019-01-14T12:36:23.991Z,23.4
2019-01-14T12:37:26.425Z,23.4
2019-01-14T12:38:28.586Z,23.4
2019-01-14T12:39:31.019Z,23.4
2019-01-14T12:40:33.438Z,23.4
2019-01-14T12:41:35.869Z,23.4
2019-01-14T12:42:37.784Z,23.4
2019-01-14T12:43:40.219Z,23.4
2019-01-14T12:44:42.364Z,23.4
2019-01-14T12:45:44.533Z,23.4
2019-01-14T12:46:46.701Z,23.4
2019-01-14T12:47:49.125Z,23.4
2019-01-14T12:48:51.589Z,23.4
2019-01-14T12:49:53.475Z,23.4
2019-01-14T12:50:55.921Z,23.4
2019-01-14T12:51:58.368Z,23.4
2019-01-14T12:53:00.825Z,23.4
2019-01-14T12:54:02.729Z,23.4
2019-01-14T12:55:05.158Z,23.4
2019-01-14T12:56:07.586Z,23.4
2019-01-14T12:57:10.041Z,23.4
2019-01-14T12:58:12.197Z,23.4
2019-01-14T12:59:14.615Z,23.4
2019-01-14T13:00:16.762Z,23.4
2019-01-14T13:01:18.654Z,23.4
2019-01-14T13:02:20.828Z,23.4
2019-01-14T13:03:22.708Z,23.4
2019-01-14T13:04:24.566Z,23.4
2019-01-14T13:05:26.993Z,23.4
2019-01-14T13:06:29.130Z,23.4
2019-01-14T13:07:31.558Z,23.4
2019-01-14T13:08:34.004Z,23.4
2019-01-14T13:09:35.915Z,23.4
2019-01-14T13:10:39.750Z,23.4
2019-01-14T13:11:42.172Z,23.4
2019-01-14T13:12:44.304Z,23.4
2019-01-14T13:13:46.466Z,23.4
2019-01-14T13:14:48.892Z,23.4
2019-01-14T13:15:50.784Z,23.4
2019-01-14T13:16:53.214Z,23.4
2019-01-14T13:17:55.358Z,23.4
2019-01-14T13:18:57.532Z,23.4
2019-01-14T13:19:59.956Z,23.4
2019-01-14T13:21:02.378Z,23.4
2019-01-14T13:22:04.251Z,23.4
2019-01-14T13:23:06.693Z,23.4
2019-01-14T13:24:08.840Z,23.4
2019-01-14T13:25:11.010Z,23.4
2019-01-14T13:26:13.171Z,23.4
2019-01-14T13:27:15.610Z,23.3
2019-01-14T13:28:18.041Z,23.4
2019-01-14T13:29:20.475Z,23.4
2019-01-14T13:30:22.351Z,23.4
2019-01-14T13:31:24.798Z,23.4
2019-01-14T13:32:27.239Z,23.4
2019-01-14T13:33:29.394Z,23.4
2019-01-14T13:34:31.287Z,23.4
2019-01-14T13:35:33.202Z,23.4
2019-01-14T13:36:35.355Z,23.3
2019-01-14T13:37:37.786Z,23.4
2019-01-14T13:38:40.247Z,23.4
2019-01-14T13:39:42.674Z,23.4
2019-01-14T13:40:44.567Z,23.4
2019-01-14T13:41:47.006Z,23.4
2019-01-14T13:42:49.427Z,23.4
2019-01-14T13:43:51.063Z,23.3
2019-01-14T13:44:52.935Z,23.3
2019-01-14T13:45:54.826Z,23.3
2019-01-14T13:46:56.985Z,23.3
2019-01-14T13:47:59.122Z,23.4
2019-01-14T13:49:01.563Z,23.3
2019-01-14T13:50:03.984Z,23.3
2019-01-14T13:51:06.412Z,23.3